Time;durP1;ratioP1;P1;durP2;ratioP2;P2;SDS_P1;SDS_P2;PMS_P1;PMS_P2;Temp;Humidity;BMP_temperature;BMP_pressure;BME280_temperature;BME280_humidity;BME280_pressure;Samples;Min_cycle;Max_cycle;Signal;HPM_P1;HPM_P2
2023/08/07 00:01:50;;;;;;;1999.90;999.90;;;11.90;99.90;;;;;;5099701;27;20504;-71
2023/08/07 00:04:16;;;;;;;1999.90;999.90;;;11.90;99.90;;;;;;5107683;28;20043;-72
2023/08/07 00:06:41;;;;;;;1999.90;999.90;;;11.90;99.90;;;;;;5106332;27;20084;-71
2023/08/07 00:09:07;;;;;;;1999.90;999.90;;;11.90;99.90;;;;;;5092583;28;20115;-72
2023/08/07 00:11:32;;;;;;;1999.90;999.90;;;11.90;99.90;;;;;;5093567;28;20504;-72
2023/08/07 00:13:58;;;;;;;1999.90;999.90;;;11.80;99.90;;;;;;5091659;28;20036;-72
2023/08/07 00:16:24;;;;;;;1999.90;999.90;;;11.80;99.90;;;;;;5093440;28;20037;-72
2023/08/07 00:18:52;;;;;;;1999.90;999.90;;;11.80;99.90;;;;;;5092110;28;20040;-71
2023/08/07 00:21:18;;;;;;;1999.90;999.90;;;11.70;99.90;;;;;;5110160;27;20038;-72
2023/08/07 00:23:43;;;;;;;1999.90;999.90;;;11.70;99.90;;;;;;5112297;27;20040;-72
2023/08/07 00:26:09;;;;;;;1999.90;999.90;;;11.80;99.90;;;;;;5108887;28;20071;-72
2023/08/07 00:28:34;;;;;;;1999.90;999.90;;;11.80;99.90;;;;;;5116329;27;20052;-72
2023/08/07 00:31:00;;;;;;;1999.90;999.90;;;11.80;99.90;;;;;;5096750;28;20032;-72
2023/08/07 00:33:25;;;;;;;1999.90;999.90;;;11.80;99.90;;;;;;5098029;28;20409;-71
2023/08/07 00:35:51;;;;;;;1999.90;999.90;;;11.80;99.90;;;;;;5101252;27;20044;-72
2023/08/07 00:38:16;;;;;;;1999.90;999.90;;;11.80;99.90;;;;;;5096708;28;20036;-72
2023/08/07 00:40:42;;;;;;;1999.90;999.90;;;11.80;99.90;;;;;;5096630;28;20083;-71
2023/08/07 00:43:07;;;;;;;1999.90;999.90;;;11.80;99.90;;;;;;5096724;28;20333;-72
2023/08/07 00:45:37;;;;;;;1999.90;999.90;;;11.80;99.90;;;;;;5096173;28;20045;-72
2023/08/07 00:48:04;;;;;;;1999.90;999.90;;;11.80;99.90;;;;;;5103477;28;20119;-72
2023/08/07 00:50:30;;;;;;;1999.90;999.90;;;11.80;99.90;;;;;;5116681;27;20039;-71
2023/08/07 00:52:56;;;;;;;1999.90;999.90;;;11.80;99.90;;;;;;5112931;27;20059;-72
2023/08/07 00:55:21;;;;;;;1999.90;999.90;;;11.90;99.90;;;;;;5096758;28;20086;-72
2023/08/07 00:57:47;;;;;;;1999.90;999.90;;;11.90;99.90;;;;;;5116292;27;20090;-72
2023/08/07 01:00:14;;;;;;;1999.90;999.90;;;11.90;99.90;;;;;;5116586;27;20039;-72
2023/08/07 01:02:40;;;;;;;1999.90;999.90;;;11.90;99.90;;;;;;5104052;27;20036;-72
2023/08/07 01:05:05;;;;;;;1999.90;999.90;;;11.90;99.90;;;;;;5094352;28;20064;-71
2023/08/07 01:07:31;;;;;;;1999.90;999.90;;;11.90;99.90;;;;;;5096191;28;20044;-71
2023/08/07 01:09:57;;;;;;;1999.90;999.90;;;11.90;99.90;;;;;;5112970;28;20112;-71
2023/08/07 01:12:30;;;;;;;1999.90;999.90;;;11.90;99.90;;;;;;5115885;27;20070;-72
2023/08/07 01:15:03;;;;;;;1999.90;999.90;;;11.90;99.90;;;;;;5116014;27;20042;-71
2023/08/07 01:17:29;;;;;;;1999.90;999.90;;;11.90;99.90;;;;;;5100136;27;20123;-72
2023/08/07 01:19:57;;;;;;;1999.90;999.90;;;11.90;99.90;;;;;;5095021;28;20035;-71
2023/08/07 01:22:22;;;;;;;1999.90;999.90;;;11.90;99.90;;;;;;5110487;27;20039;-72
2023/08/07 01:24:50;;;;;;;1999.90;999.90;;;11.90;99.90;;;;;;5114414;27;20036;-72
2023/08/07 01:27:31;;;;;;;1999.90;999.90;;;11.90;99.90;;;;;;5103123;27;20040;-72
2023/08/07 01:30:29;;;;;;;1999.90;999.90;;;11.90;99.90;;;;;;5114149;27;20466;-71
2023/08/07 01:33:25;;;;;;;1999.90;999.90;;;11.90;99.90;;;;;;5094010;28;20082;-72
2023/08/07 01:35:54;;;;;;;1999.90;999.90;;;11.90;99.90;;;;;;5095276;28;20033;-71
2023/08/07 01:38:24;;;;;;;1999.90;999.90;;;11.90;99.90;;;;;;5095596;28;20539;-72
2023/08/07 01:40:50;;;;;;;1999.90;999.90;;;11.90;99.90;;;;;;5095655;28;20500;-72
2023/08/07 01:43:18;;;;;;;1999.90;999.90;;;11.90;99.90;;;;;;5099258;28;20052;-71
2023/08/07 01:45:44;;;;;;;1999.90;999.90;;;11.90;99.90;;;;;;5096513;28;20040;-72
2023/08/07 01:48:09;;;;;;;1999.90;999.90;;;11.80;99.90;;;;;;5095590;28;20033;-71
2023/08/07 01:50:35;;;;;;;1999.90;999.90;;;11.90;99.90;;;;;;5093984;28;20046;-71
2023/08/07 01:53:02;;;;;;;1999.90;999.90;;;11.90;99.90;;;;;;5104663;28;20107;-72
2023/08/07 01:55:28;;;;;;;1999.90;999.90;;;12.00;99.90;;;;;;5106371;27;20501;-72
2023/08/07 01:57:53;;;;;;;1999.90;999.90;;;12.00;99.90;;;;;;5115256;27;20040;-72
2023/08/07 02:00:19;;;;;;;1999.90;999.90;;;11.90;99.90;;;;;;5108110;27;20039;-73
2023/08/07 02:02:48;;;;;;;1999.90;999.90;;;12.00;99.90;;;;;;5116954;22;20053;-72
2023/08/07 02:05:14;;;;;;;1999.90;999.90;;;12.00;99.90;;;;;;5089111;28;20076;-73
2023/08/07 02:07:40;;;;;;;1999.90;999.90;;;12.00;99.90;;;;;;5075765;28;20080;-73
2023/08/07 02:10:06;;;;;;;1999.90;999.90;;;12.00;99.90;;;;;;5075895;28;20060;-73
2023/08/07 02:12:34;;;;;;;1999.90;999.90;;;12.00;99.90;;;;;;5075423;28;20088;-73
2023/08/07 02:15:00;;;;;;;1999.90;999.90;;;12.00;99.90;;;;;;5079542;28;20046;-72
2023/08/07 02:17:32;;;;;;;1999.90;999.90;;;12.00;99.90;;;;;;5082476;28;20074;-73
2023/08/07 02:19:58;;;;;;;1999.90;999.90;;;12.00;99.90;;;;;;5076417;28;20029;-73
2023/08/07 02:22:24;;;;;;;1999.90;999.90;;;11.90;99.90;;;;;;5076437;28;20033;-72
2023/08/07 02:24:50;;;;;;;1999.90;999.90;;;11.90;99.90;;;;;;5084478;28;20041;-73
2023/08/07 02:27:16;;;;;;;1999.90;999.90;;;11.90;99.90;;;;;;5075064;28;20045;-73
2023/08/07 02:29:41;;;;;;;1999.90;999.90;;;11.90;99.90;;;;;;5077549;28;20033;-72
2023/08/07 02:32:07;;;;;;;1999.90;999.90;;;11.90;99.90;;;;;;5089358;28;20115;-71
2023/08/07 02:34:33;;;;;;;1999.90;999.90;;;11.80;99.90;;;;;;5075921;28;20037;-72
2023/08/07 02:36:59;;;;;;;1999.90;999.90;;;11.90;99.90;;;;;;5094874;28;20560;-72
2023/08/07 02:39:25;;;;;;;1999.90;999.90;;;11.90;99.90;;;;;;5095407;28;20089;-73
2023/08/07 02:41:51;;;;;;;1999.90;999.90;;;11.90;99.90;;;;;;5095152;28;20155;-72
2023/08/07 02:44:20;;;;;;;1999.90;999.90;;;11.90;99.90;;;;;;5094426;28;20036;-72
2023/08/07 02:46:46;;;;;;;1999.90;999.90;;;11.90;99.90;;;;;;5091249;28;20039;-73
2023/08/07 02:49:11;;;;;;;1999.90;999.90;;;11.90;99.90;;;;;;5090105;28;20037;-73
2023/08/07 02:51:37;;;;;;;1999.90;999.90;;;11.90;99.90;;;;;;5074995;28;20037;-73
2023/08/07 02:54:02;;;;;;;1999.90;999.90;;;12.00;99.90;;;;;;5075684;28;20082;-73
2023/08/07 02:56:28;;;;;;;1999.90;999.90;;;11.90;99.90;;;;;;5093655;28;20177;-73
2023/08/07 02:58:53;;;;;;;1999.90;999.90;;;12.00;99.90;;;;;;5095111;28;20036;-73
2023/08/07 03:01:21;;;;;;;1999.90;999.90;;;12.00;99.90;;;;;;5086453;28;20517;-73
2023/08/07 03:03:46;;;;;;;1999.90;999.90;;;12.00;99.90;;;;;;5093739;28;20749;-73
2023/08/07 03:06:12;;;;;;;1999.90;999.90;;;12.00;99.90;;;;;;5091979;28;20040;-71
2023/08/07 03:08:37;;;;;;;1999.90;999.90;;;12.00;99.90;;;;;;5081948;28;20032;-73
2023/08/07 03:11:03;;;;;;;1999.90;999.90;;;12.00;99.90;;;;;;5074977;28;20036;-73
2023/08/07 03:13:29;;;;;;;1999.90;999.90;;;12.00;99.90;;;;;;5075165;28;20044;-73
2023/08/07 03:16:02;;;;;;;1999.90;999.90;;;12.00;99.90;;;;;;5073077;28;20065;-73
2023/08/07 03:18:28;;;;;;;1999.90;999.90;;;12.00;99.90;;;;;;5082212;28;20086;-73
2023/08/07 03:20:55;;;;;;;1999.90;999.90;;;12.00;99.90;;;;;;5092988;28;20110;-71
2023/08/07 03:23:22;;;;;;;1999.90;999.90;;;12.00;99.90;;;;;;5082966;28;20132;-73
2023/08/07 03:25:47;;;;;;;1999.90;999.90;;;12.00;99.90;;;;;;5074243;28;20033;-72
2023/08/07 03:28:13;;;;;;;1999.90;999.90;;;12.00;99.90;;;;;;5080285;28;20037;-73
2023/08/07 03:30:38;;;;;;;1999.90;999.90;;;12.00;99.90;;;;;;5092970;28;20043;-73
2023/08/07 03:33:04;;;;;;;1999.90;999.90;;;12.00;99.90;;;;;;5092679;28;20040;-72
2023/08/07 03:35:30;;;;;;;1999.90;999.90;;;12.00;99.90;;;;;;5092328;28;20071;-73
2023/08/07 03:37:55;;;;;;;1999.90;999.90;;;12.00;99.90;;;;;;5090888;28;20025;-73
2023/08/07 03:40:21;;;;;;;1999.90;999.90;;;12.00;99.90;;;;;;5074276;28;20041;-73
2023/08/07 03:42:46;;;;;;;1999.90;999.90;;;12.00;99.90;;;;;;5072431;28;20055;-74
2023/08/07 03:45:12;;;;;;;1999.90;999.90;;;11.90;99.90;;;;;;5075214;28;20036;-73
2023/08/07 03:47:37;;;;;;;1999.90;999.90;;;12.00;99.90;;;;;;5074744;28;20048;-73
2023/08/07 03:50:03;;;;;;;1999.90;999.90;;;12.00;99.90;;;;;;5094715;28;20028;-73
2023/08/07 03:52:28;;;;;;;1999.90;999.90;;;11.90;99.90;;;;;;5094357;28;20375;-73
2023/08/07 03:54:54;;;;;;;1999.90;999.90;;;11.90;99.90;;;;;;5082719;28;20051;-73
2023/08/07 03:57:19;;;;;;;1999.90;999.90;;;12.00;99.90;;;;;;5097964;28;20028;-73
2023/08/07 03:59:45;;;;;;;1999.90;999.90;;;11.90;99.90;;;;;;5080409;28;20528;-73
2023/08/07 04:02:11;;;;;;;1999.90;999.90;;;11.90;99.90;;;;;;5076969;28;20498;-73
2023/08/07 04:04:36;;;;;;;1999.90;999.90;;;12.00;99.90;;;;;;5078516;28;20060;-72
2023/08/07 04:07:02;;;;;;;1999.90;999.90;;;11.90;99.90;;;;;;5077833;28;20069;-73
2023/08/07 04:09:27;;;;;;;1999.90;999.90;;;12.00;99.90;;;;;;5078816;28;20115;-72
2023/08/07 04:11:53;;;;;;;1999.90;999.90;;;12.00;99.90;;;;;;5088310;28;20040;-73
2023/08/07 04:14:19;;;;;;;1999.90;999.90;;;11.90;99.90;;;;;;5076650;28;20037;-73
2023/08/07 04:16:45;;;;;;;1999.90;999.90;;;11.90;99.90;;;;;;5078844;28;20036;-72
2023/08/07 04:19:10;;;;;;;1999.90;999.90;;;11.90;99.90;;;;;;5075542;28;20040;-73
2023/08/07 04:21:36;;;;;;;1999.90;999.90;;;11.90;99.90;;;;;;5079359;28;20044;-72
2023/08/07 04:24:10;;;;;;;1999.90;999.90;;;11.70;99.90;;;;;;5093198;28;20020;-72
2023/08/07 04:26:35;;;;;;;1999.90;999.90;;;11.80;99.90;;;;;;5096699;28;20040;-72
2023/08/07 04:29:01;;;;;;;1999.90;999.90;;;11.90;99.90;;;;;;5083223;28;20033;-73
2023/08/07 04:31:26;;;;;;;1999.90;999.90;;;11.90;99.90;;;;;;5092734;28;20059;-73
2023/08/07 04:33:52;;;;;;;1999.90;999.90;;;11.90;99.90;;;;;;5090081;28;20037;-72
2023/08/07 04:36:17;;;;;;;1999.90;999.90;;;11.90;99.90;;;;;;5077457;28;20036;-72
2023/08/07 04:38:43;;;;;;;1999.90;999.90;;;11.90;99.90;;;;;;5077260;28;20029;-73
2023/08/07 04:41:08;;;;;;;1999.90;999.90;;;12.00;99.90;;;;;;5090368;28;20037;-73
2023/08/07 04:43:34;;;;;;;1999.90;999.90;;;12.00;99.90;;;;;;5096505;28;20325;-73
2023/08/07 04:46:00;;;;;;;1999.90;999.90;;;11.90;99.90;;;;;;5077249;28;20104;-73
2023/08/07 04:48:25;;;;;;;1999.90;999.90;;;12.00;99.90;;;;;;5074957;28;20552;-73
2023/08/07 04:50:51;;;;;;;1999.90;999.90;;;12.00;99.90;;;;;;5087411;28;20041;-73
2023/08/07 04:53:16;;;;;;;1999.90;999.90;;;12.00;99.90;;;;;;5084705;28;20037;-73
2023/08/07 04:55:42;;;;;;;1999.90;999.90;;;12.00;99.90;;;;;;5076085;28;20037;-73
2023/08/07 04:58:08;;;;;;;1999.90;999.90;;;12.00;99.90;;;;;;5086636;28;20028;-72
2023/08/07 05:00:33;;;;;;;1999.90;999.90;;;12.00;99.90;;;;;;5091332;28;20047;-73
2023/08/07 05:02:59;;;;;;;1999.90;999.90;;;12.00;99.90;;;;;;5095891;28;20029;-73
2023/08/07 05:05:24;;;;;;;1999.90;999.90;;;12.10;99.90;;;;;;5093425;28;20043;-73
2023/08/07 05:07:50;;;;;;;1999.90;999.90;;;12.10;99.90;;;;;;5096674;28;20044;-73
2023/08/07 05:10:16;;;;;;;1999.90;999.90;;;12.10;99.90;;;;;;5096440;28;20036;-73
2023/08/07 05:12:41;;;;;;;1999.90;999.90;;;12.10;99.90;;;;;;5094772;28;20048;-73
2023/08/07 05:15:07;;;;;;;1999.90;999.90;;;12.20;99.90;;;;;;5079794;28;20036;-72
2023/08/07 05:17:33;;;;;;;1999.90;999.90;;;12.20;99.90;;;;;;5094590;28;20043;-73
2023/08/07 05:19:58;;;;;;;1999.90;999.90;;;12.30;99.90;;;;;;5096219;28;20048;-73
2023/08/07 05:22:24;;;;;;;1999.90;999.90;;;12.40;99.90;;;;;;5090386;28;20037;-73
2023/08/07 05:24:50;;;;;;;1999.90;999.90;;;12.40;99.90;;;;;;5095787;28;20033;-71
2023/08/07 05:27:16;;;;;;;1999.90;999.90;;;12.40;99.90;;;;;;5076598;28;20048;-71
2023/08/07 05:29:44;;;;;;;1999.90;999.90;;;12.40;99.90;;;;;;5077339;28;20858;-73
2023/08/07 05:32:11;;;;;;;1999.90;999.90;;;12.50;99.90;;;;;;5076406;28;20443;-72
2023/08/07 05:34:37;;;;;;;1999.90;999.90;;;12.50;99.90;;;;;;5087605;28;20494;-73
2023/08/07 05:37:03;;;;;;;1999.90;999.90;;;12.50;99.90;;;;;;5076151;28;20041;-73
2023/08/07 05:39:29;;;;;;;1999.90;999.90;;;12.50;99.90;;;;;;5076076;28;20029;-72
2023/08/07 05:41:57;;;;;;;1999.90;999.90;;;12.50;99.90;;;;;;5073192;28;20104;-71
2023/08/07 05:44:25;;;;;;;1999.90;999.90;;;12.60;99.90;;;;;;5074764;28;20084;-73
2023/08/07 05:46:51;;;;;;;1999.90;999.90;;;12.60;99.90;;;;;;5074500;28;20037;-74
2023/08/07 05:49:17;;;;;;;1999.90;999.90;;;12.50;99.90;;;;;;5077920;28;20041;-72
2023/08/07 05:51:42;;;;;;;1999.90;999.90;;;12.50;99.90;;;;;;5077740;28;20047;-71
2023/08/07 05:54:08;;;;;;;1999.90;999.90;;;12.50;99.90;;;;;;5076882;28;20025;-72
2023/08/07 05:56:34;;;;;;;1999.90;999.90;;;12.50;99.90;;;;;;5076284;28;20116;-71
2023/08/07 05:58:59;;;;;;;1999.90;999.90;;;12.50;99.90;;;;;;5078560;28;20548;-72
2023/08/07 06:01:30;;;;;;;1999.90;999.90;;;12.50;99.90;;;;;;5079158;28;20040;-71
2023/08/07 06:03:56;;;;;;;1999.90;999.90;;;12.50;99.90;;;;;;5077094;28;20049;-71
2023/08/07 06:06:22;;;;;;;1999.90;999.90;;;12.50;99.90;;;;;;5079390;28;20056;-71
2023/08/07 06:08:48;;;;;;;1999.90;999.90;;;12.50;99.90;;;;;;5078744;28;20044;-73
2023/08/07 06:11:14;;;;;;;1999.90;999.90;;;12.60;99.90;;;;;;5073597;28;20044;-68
2023/08/07 06:13:40;;;;;;;1999.90;999.90;;;12.70;99.90;;;;;;5076222;28;20108;-72
2023/08/07 06:16:06;;;;;;;1999.90;999.90;;;12.60;99.90;;;;;;5075701;28;20480;-72
2023/08/07 06:18:32;;;;;;;1999.90;999.90;;;12.60;99.90;;;;;;5076577;28;20037;-75
2023/08/07 06:20:57;;;;;;;1999.90;999.90;;;12.70;99.90;;;;;;5075451;28;20040;-72
2023/08/07 06:23:23;;;;;;;1999.90;999.90;;;12.70;99.90;;;;;;5072865;28;20040;-71
2023/08/07 06:25:48;;;;;;;1999.90;999.90;;;12.80;99.90;;;;;;5077750;28;20048;-72
2023/08/07 06:28:14;;;;;;;1999.90;999.90;;;12.90;99.90;;;;;;5076915;28;20439;-72
2023/08/07 06:30:39;;;;;;;1999.90;999.90;;;12.90;99.90;;;;;;5093850;28;20041;-73
2023/08/07 06:33:05;;;;;;;1999.90;999.90;;;13.00;99.90;;;;;;5080310;28;20115;-72
2023/08/07 06:35:30;;;;;;;1999.90;999.90;;;13.00;99.90;;;;;;5074163;28;20128;-70
2023/08/07 06:37:56;;;;;;;1999.90;999.90;;;13.00;99.90;;;;;;5080907;28;20051;-71
2023/08/07 06:40:21;;;;;;;1999.90;999.90;;;13.10;99.90;;;;;;5094769;28;20038;-71
2023/08/07 06:42:47;;;;;;;1999.90;999.90;;;13.10;99.90;;;;;;5094319;28;20044;-71
2023/08/07 06:45:13;;;;;;;1999.90;999.90;;;13.10;99.90;;;;;;5094398;28;20041;-71
2023/08/07 06:47:38;;;;;;;1999.90;999.90;;;13.20;99.90;;;;;;5094133;28;20044;-72
2023/08/07 06:50:05;;;;;;;1999.90;999.90;;;13.10;99.90;;;;;;5093067;28;20033;-69
2023/08/07 06:52:30;;;;;;;1999.90;999.90;;;13.10;99.90;;;;;;5094392;28;20033;-71
2023/08/07 06:54:56;;;;;;;1999.90;999.90;;;13.10;99.90;;;;;;5074907;28;20041;-71
2023/08/07 06:57:21;;;;;;;1999.90;999.90;;;13.20;99.90;;;;;;5072417;28;20037;-71
2023/08/07 06:59:47;;;;;;;1999.90;999.90;;;13.40;99.90;;;;;;5074785;28;20414;-71
2023/08/07 07:02:13;;;;;;;1999.90;999.90;;;13.40;99.90;;;;;;5082713;28;20044;-71
2023/08/07 07:04:38;;;;;;;1999.90;999.90;;;13.50;99.90;;;;;;5093036;28;20107;-71
2023/08/07 07:07:04;;;;;;;1999.90;999.90;;;13.60;99.90;;;;;;5074370;28;20486;-71
2023/08/07 07:09:29;;;;;;;1999.90;999.90;;;13.70;99.90;;;;;;5086987;28;20521;-70
2023/08/07 07:11:55;;;;;;;1999.90;999.90;;;13.70;99.90;;;;;;5092914;28;20123;-71
2023/08/07 07:14:21;;;;;;;1999.90;999.90;;;13.80;99.90;;;;;;5093989;28;20031;-71
2023/08/07 07:16:47;;;;;;;1999.90;999.90;;;13.80;99.90;;;;;;5083405;28;20502;-71
2023/08/07 07:19:12;;;;;;;1999.90;999.90;;;13.90;99.90;;;;;;5093359;28;20059;-70
2023/08/07 07:21:38;;;;;;;1999.90;999.90;;;13.90;99.90;;;;;;5092788;28;20033;-71
2023/08/07 07:24:04;;;;;;;1999.90;999.90;;;13.70;99.90;;;;;;5092801;28;20040;-71
2023/08/07 07:26:29;;;;;;;1999.90;999.90;;;13.70;99.90;;;;;;5091154;28;20048;-71
2023/08/07 07:28:55;;;;;;;1999.90;999.90;;;13.70;99.90;;;;;;5089618;28;20119;-70
2023/08/07 07:31:21;;;;;;;1999.90;999.90;;;13.70;99.90;;;;;;5078540;28;20040;-71
2023/08/07 07:33:47;;;;;;;1999.90;999.90;;;13.70;99.90;;;;;;5077280;28;20506;-71
2023/08/07 07:36:17;;;;;;;1999.90;999.90;;;13.80;99.90;;;;;;5096004;28;20037;-71
2023/08/07 07:38:43;;;;;;;1999.90;999.90;;;13.90;99.90;;;;;;5077561;28;20064;-70
2023/08/07 07:41:11;;;;;;;1999.90;999.90;;;13.80;99.90;;;;;;5077499;28;20037;-71
2023/08/07 07:43:37;;;;;;;1999.90;999.90;;;13.90;99.90;;;;;;5077519;28;20025;-69
2023/08/07 07:46:03;;;;;;;1999.90;999.90;;;14.00;99.90;;;;;;5092762;28;20037;-70
2023/08/07 07:48:28;;;;;;;1999.90;999.90;;;14.00;99.90;;;;;;5095953;28;20071;-72
2023/08/07 07:51:04;;;;;;;1999.90;999.90;;;14.00;99.90;;;;;;5096028;28;20082;-71
2023/08/07 07:53:30;;;;;;;1999.90;999.90;;;14.00;99.90;;;;;;5095950;28;20032;-71
2023/08/07 07:56:07;;;;;;;1999.90;999.90;;;14.00;99.90;;;;;;5097596;28;20039;-71
2023/08/07 07:58:40;;;;;;;1999.90;999.90;;;14.00;99.90;;;;;;5082853;28;20037;-72
2023/08/07 08:01:07;;;;;;;1999.90;999.90;;;13.90;99.90;;;;;;5077762;28;20036;-73
2023/08/07 08:03:40;;;;;;;1999.90;999.90;;;14.00;99.90;;;;;;5077083;28;20112;-75
2023/08/07 08:06:09;;;;;;;1999.90;999.90;;;14.00;99.90;;;;;;5084178;28;20089;-75
2023/08/07 08:08:47;;;;;;;1999.90;999.90;;;14.10;99.90;;;;;;5075812;28;20029;-75
2023/08/07 08:11:13;;;;;;;1999.90;999.90;;;14.20;99.90;;;;;;5076288;28;20029;-73
2023/08/07 08:13:41;;;;;;;1999.90;999.90;;;14.40;99.90;;;;;;5093697;28;20559;-73
2023/08/07 08:16:07;;;;;;;1999.90;999.90;;;14.60;99.90;;;;;;5096530;28;20044;-76
2023/08/07 08:18:32;;;;;;;1999.90;999.90;;;14.80;99.90;;;;;;5096751;28;20020;-73
2023/08/07 08:20:58;;;;;;;1999.90;999.90;;;14.80;99.90;;;;;;5096290;28;20033;-73
2023/08/07 08:23:23;;;;;;;1999.90;999.90;;;14.90;99.90;;;;;;5083149;28;20029;-72
2023/08/07 08:25:49;;;;;;;1999.90;999.90;;;15.00;99.90;;;;;;5094419;28;20045;-73
2023/08/07 08:28:15;;;;;;;1999.90;999.90;;;15.00;99.90;;;;;;5086495;28;20123;-70
2023/08/07 08:30:41;;;;;;;1999.90;999.90;;;14.90;99.90;;;;;;5090022;28;20171;-69
2023/08/07 08:33:09;;;;;;;1999.90;999.90;;;14.80;99.90;;;;;;5097030;28;20094;-71
2023/08/07 08:35:35;;;;;;;1999.90;999.90;;;14.90;99.90;;;;;;5096872;28;20474;-70
2023/08/07 08:38:01;;;;;;;1999.90;999.90;;;15.00;99.90;;;;;;5097085;28;20822;-71
2023/08/07 08:40:26;;;;;;;1999.90;999.90;;;15.10;99.90;;;;;;5085120;28;20032;-75
2023/08/07 08:42:57;;;;;;;1999.90;999.90;;;15.60;99.90;;;;;;5076634;28;20132;-71
2023/08/07 08:45:25;;;;;;;1999.90;999.90;;;15.90;99.90;;;;;;5092464;28;20029;-71
2023/08/07 08:47:53;;;;;;;1999.90;999.90;;;15.90;99.90;;;;;;5088801;28;20041;-70
2023/08/07 08:50:19;;;;;;;1999.90;999.90;;;15.70;99.90;;;;;;5096788;28;20048;-79
2023/08/07 08:52:45;;;;;;;1999.90;999.90;;;15.30;99.90;;;;;;5096943;28;20064;-70
2023/08/07 08:55:12;;;;;;;1999.90;999.90;;;15.10;99.90;;;;;;5096740;28;20072;-74
2023/08/07 08:57:39;;;;;;;1999.90;999.90;;;14.90;99.90;;;;;;5086914;28;20554;-80
2023/08/07 09:00:17;;;;;;;1999.90;999.90;;;14.80;99.90;;;;;;5075709;28;20072;-71
2023/08/07 09:02:44;;;;;;;1999.90;999.90;;;14.90;99.90;;;;;;5083595;28;20021;-73
2023/08/07 09:05:10;;;;;;;1999.90;999.90;;;15.00;99.90;;;;;;5089306;28;20041;-74
2023/08/07 09:07:36;;;;;;;1999.90;999.90;;;15.10;99.90;;;;;;5083376;28;20459;-71
2023/08/07 09:10:03;;;;;;;1999.90;999.90;;;14.90;99.90;;;;;;5078256;28;20037;-78
2023/08/07 09:12:32;;;;;;;1999.90;999.90;;;15.20;99.90;;;;;;5083108;28;20044;-75
2023/08/07 09:15:00;;;;;;;1999.90;999.90;;;15.30;99.90;;;;;;5076183;28;20044;-77
2023/08/07 09:17:31;;;;;;;1999.90;999.90;;;15.70;99.90;;;;;;5086931;28;20040;-74
2023/08/07 09:19:58;;;;;;;1999.90;999.90;;;16.20;99.90;;;;;;5094934;28;20036;-73
2023/08/07 09:22:23;;;;;;;1999.90;999.90;;;16.40;99.90;;;;;;5096266;28;20032;-74
2023/08/07 09:24:49;;;;;;;1999.90;999.90;;;16.60;99.90;;;;;;5088003;28;20041;-72
2023/08/07 09:27:15;;;;;;;1999.90;999.90;;;16.90;99.90;;;;;;5075705;28;20048;-74
2023/08/07 09:29:41;;;;;;;1999.90;999.90;;;16.70;99.90;;;;;;5089356;28;20064;-72
2023/08/07 09:32:08;;;;;;;1999.90;999.90;;;16.90;99.90;;;;;;5094275;28;20037;-77
2023/08/07 09:34:34;;;;;;;1999.90;999.90;;;16.60;99.90;;;;;;5093214;28;20044;-71
2023/08/07 09:37:00;;;;;;;1999.90;999.90;;;16.50;99.90;;;;;;5083565;28;20535;-72
2023/08/07 09:39:27;;;;;;;1999.90;999.90;;;16.50;99.90;;;;;;5075800;28;20029;-76
2023/08/07 09:41:52;;;;;;;1999.90;999.90;;;16.40;99.90;;;;;;5075786;28;20118;-75
2023/08/07 09:44:18;;;;;;;1999.90;999.90;;;16.40;99.90;;;;;;5075682;28;20056;-74
2023/08/07 09:46:44;;;;;;;1999.90;999.90;;;16.70;99.90;;;;;;5088391;28;20123;-74
2023/08/07 09:49:10;;;;;;;1999.90;999.90;;;16.90;99.90;;;;;;5094052;28;20032;-72
2023/08/07 09:51:46;;;;;;;1999.90;999.90;;;17.10;99.90;;;;;;5075660;28;20372;-72
2023/08/07 09:54:12;;;;;;;1999.90;999.90;;;17.10;99.90;;;;;;5073903;28;20033;-74
2023/08/07 09:56:40;;;;;;;1999.90;999.90;;;17.80;99.90;;;;;;5083722;28;20033;-74
2023/08/07 09:59:06;;;;;;;1999.90;999.90;;;17.90;99.90;;;;;;5095184;28;20060;-70
2023/08/07 10:01:32;;;;;;;1999.90;999.90;;;18.10;99.90;;;;;;5075537;28;20114;-72
2023/08/07 10:03:58;;;;;;;1999.90;999.90;;;18.60;99.90;;;;;;5074592;28;20802;-71
2023/08/07 10:06:24;;;;;;;1999.90;999.90;;;18.50;99.90;;;;;;5083661;28;20055;-71
2023/08/07 10:08:51;;;;;;;1999.90;999.90;;;18.40;99.90;;;;;;5084351;28;20035;-79
2023/08/07 10:11:17;;;;;;;1999.90;999.90;;;18.30;99.90;;;;;;5073634;28;20473;-76
2023/08/07 10:13:43;;;;;;;1999.90;999.90;;;17.90;99.90;;;;;;5075191;28;20029;-72
2023/08/07 10:16:09;;;;;;;1999.90;999.90;;;17.90;99.90;;;;;;5080683;28;20111;-76
2023/08/07 10:18:36;;;;;;;1999.90;999.90;;;17.80;99.90;;;;;;5081667;28;20191;-74
2023/08/07 10:21:03;;;;;;;1999.90;999.90;;;17.60;99.90;;;;;;5075559;28;20520;-72
2023/08/07 10:23:30;;;;;;;1999.90;999.90;;;17.50;99.90;;;;;;5088540;28;20048;-72
2023/08/07 10:25:56;;;;;;;1999.90;999.90;;;17.40;99.90;;;;;;5093324;28;20066;-72
2023/08/07 10:28:24;;;;;;;1999.90;999.90;;;17.50;99.90;;;;;;5093653;28;20128;-73
2023/08/07 10:30:50;;;;;;;1999.90;999.90;;;17.60;99.90;;;;;;5095056;28;20040;-74
2023/08/07 10:33:18;;;;;;;1999.90;999.90;;;17.60;99.90;;;;;;5093806;28;20034;-74
2023/08/07 10:35:50;;;;;;;1999.90;999.90;;;17.90;99.90;;;;;;5094890;28;20086;-71
2023/08/07 10:38:19;;;;;;;1999.90;999.90;;;18.20;99.90;;;;;;5094583;28;20040;-73
2023/08/07 10:41:12;;;;;;;1999.90;999.90;;;18.20;99.90;;;;;;5080105;28;20044;-73
2023/08/07 10:43:40;;;;;;;1999.90;999.90;;;18.00;99.90;;;;;;5095096;28;20040;-73
2023/08/07 10:46:25;;;;;;;1999.90;999.90;;;18.00;99.90;;;;;;5094677;28;20043;-73
2023/08/07 10:48:57;;;;;;;1999.90;999.90;;;18.30;99.90;;;;;;5094317;28;20486;-73
2023/08/07 10:51:30;;;;;;;1999.90;999.90;;;18.00;99.90;;;;;;5091529;28;20091;-73
2023/08/07 10:53:56;;;;;;;1999.90;999.90;;;17.70;99.90;;;;;;5093364;28;20085;-72
2023/08/07 10:56:41;;;;;;;1999.90;999.90;;;17.30;99.90;;;;;;5094854;28;20081;-73
2023/08/07 10:59:09;;;;;;;1999.90;999.90;;;16.90;99.90;;;;;;5094944;28;20032;-73
2023/08/07 11:01:38;;;;;;;1999.90;999.90;;;16.60;99.90;;;;;;5094728;28;20569;-78
2023/08/07 11:04:13;;;;;;;1999.90;999.90;;;16.50;99.90;;;;;;5092193;28;20056;-74
2023/08/07 11:06:40;;;;;;;1999.90;999.90;;;16.70;99.90;;;;;;5094677;28;20591;-74
2023/08/07 11:09:08;;;;;;;1999.90;999.90;;;17.10;99.90;;;;;;5094764;28;20082;-72
2023/08/07 11:11:44;;;;;;;1999.90;999.90;;;17.40;99.90;;;;;;5094419;28;20032;-72
2023/08/07 11:14:18;;;;;;;1999.90;999.90;;;17.50;99.90;;;;;;5094417;28;20498;-72
2023/08/07 11:16:44;;;;;;;1999.90;999.90;;;17.80;99.90;;;;;;5094427;28;20041;-76
2023/08/07 11:19:11;;;;;;;1999.90;999.90;;;17.90;99.90;;;;;;5094590;28;20021;-72
2023/08/07 11:21:37;;;;;;;1999.90;999.90;;;17.70;99.90;;;;;;5094504;28;20032;-73
2023/08/07 11:24:03;;;;;;;1999.90;999.90;;;17.80;99.90;;;;;;5094326;28;20269;-73
2023/08/07 11:26:29;;;;;;;1999.90;999.90;;;17.80;99.90;;;;;;5091102;28;20509;-72
2023/08/07 11:28:55;;;;;;;1999.90;999.90;;;17.60;99.90;;;;;;5084936;28;20036;-73
2023/08/07 11:31:24;;;;;;;1999.90;999.90;;;17.20;99.90;;;;;;5083216;28;20103;-73
2023/08/07 11:33:54;;;;;;;1999.90;999.90;;;17.40;99.90;;;;;;5082813;28;20068;-73
2023/08/07 11:36:20;;;;;;;1999.90;999.90;;;17.10;99.90;;;;;;5083927;28;20123;-73
2023/08/07 11:38:49;;;;;;;1999.90;999.90;;;17.00;99.90;;;;;;5084035;28;20033;-73
2023/08/07 11:41:17;;;;;;;1999.90;999.90;;;16.90;99.90;;;;;;5082730;28;20045;-73
2023/08/07 11:43:49;;;;;;;1999.90;999.90;;;16.60;99.90;;;;;;5083346;28;20033;-73
2023/08/07 11:46:15;;;;;;;1999.90;999.90;;;16.80;99.90;;;;;;5082353;28;20502;-73
2023/08/07 11:48:43;;;;;;;1999.90;999.90;;;16.80;99.90;;;;;;5083784;28;20032;-73
2023/08/07 11:51:08;;;;;;;1999.90;999.90;;;16.90;99.90;;;;;;5084351;28;20083;-73
2023/08/07 11:53:37;;;;;;;1999.90;999.90;;;17.10;99.90;;;;;;5082889;28;20087;-72
2023/08/07 11:56:05;;;;;;;1999.90;999.90;;;17.00;99.90;;;;;;5082921;28;20052;-72
2023/08/07 11:58:45;;;;;;;1999.90;999.90;;;16.90;99.90;;;;;;5084490;28;20021;-72